Terminal Aerodrome Forecast
Issued by NWS

Home | Current Version | Previous Version | Text Only | Print | Product List | Glossary On
Versions: 1 2 3 4 5 6 7 8 9 10
726
FTUS43 KILX 250523
TAFCMI
TAF
KCMI 250523Z 2506/2606 13006KT P6SM FEW250
     FM251600 16015G23KT P6SM SCT250
     FM260200 16012KT P6SM BKN200=

USA.gov is the U.S. government's official web portal to all federal, state and local government web resources and services.